Terminal Aerodrome Forecast
Issued by NWS Tuscon, AZ

Home | Current Version | Previous Version | Text Only | Print | Product List | Glossary On
Versions: 1 2 3 4 5 6 7 8 9 10 11 12
000
FTUS45 KTWC 281100
TAFTUS
TAF
KTUS 281136Z 2812/0112 VRB06KT P6SM SCT250
      TEMPO 2812/2815 20013G20KT P6SM SCT250
     FM281500 21015G23KT P6SM SCT060 SCT150 BKN250
     FM282000 22019G29KT P6SM SCT060 BKN150
     FM010300 20011KT P6SM SCT050 BKN120
     FM010800 16006KT P6SM SCT050 BKN100=

USA.gov is the U.S. government's official web portal to all federal, state and local government web resources and services.